createdAt,value
2018-09-06T00:01:02.125Z,28.33
2018-09-06T00:03:35.066Z,30.73
2018-09-06T00:06:03.332Z,29.07
2018-09-06T00:08:32.429Z,26.40
2018-09-06T00:11:00.658Z,23.33
2018-09-06T00:13:28.854Z,22.85
2018-09-06T00:15:57.319Z,21.73
2018-09-06T00:18:25.531Z,20.20
2018-09-06T00:20:53.733Z,26.87
2018-09-06T00:23:21.945Z,27.50
2018-09-06T00:25:50.133Z,25.48
2018-09-06T00:28:18.328Z,27.30
2018-09-06T00:30:46.536Z,25.60
2018-09-06T00:33:14.760Z,22.50
2018-09-06T00:35:42.977Z,23.18
2018-09-06T00:38:11.164Z,23.70
2018-09-06T00:40:39.628Z,22.37
2018-09-06T00:43:07.842Z,24.77
2018-09-06T00:45:36.094Z,24.70
2018-09-06T00:48:04.267Z,26.20
2018-09-06T00:50:40.398Z,22.00
2018-09-06T00:53:08.572Z,23.73
2018-09-06T00:55:37.441Z,24.70
2018-09-06T00:58:05.607Z,26.30
2018-09-06T01:00:33.827Z,25.73
2018-09-06T01:03:01.969Z,25.90
2018-09-06T01:05:30.619Z,26.33
2018-09-06T01:07:58.828Z,28.70
2018-09-06T01:10:27.608Z,30.10
2018-09-06T01:12:56.572Z,31.17
2018-09-06T01:15:24.779Z,31.57
2018-09-06T01:17:52.977Z,28.77
2018-09-06T01:20:28.279Z,31.55
2018-09-06T01:22:56.463Z,33.35
2018-09-06T01:25:24.659Z,32.33
2018-09-06T01:27:52.860Z,31.30
2018-09-06T01:30:21.984Z,31.52
2018-09-06T01:32:50.180Z,33.30
2018-09-06T01:35:18.357Z,31.17
2018-09-06T01:37:47.010Z,30.20
2018-09-06T01:40:15.167Z,33.20
2018-09-06T01:42:43.364Z,32.40
2018-09-06T01:45:11.556Z,30.75
2018-09-06T01:47:40.048Z,28.87
2018-09-06T01:50:15.776Z,28.57
2018-09-06T01:52:43.960Z,23.83
2018-09-06T01:55:12.397Z,26.17
2018-09-06T01:57:40.593Z,26.55
2018-09-06T02:00:08.796Z,26.93
2018-09-06T02:02:37.216Z,30.93
2018-09-06T02:05:05.568Z,30.93
2018-09-06T02:07:33.756Z,34.83
2018-09-06T02:10:01.961Z,29.83
2018-09-06T02:12:30.180Z,27.45
2018-09-06T02:14:58.355Z,27.77
2018-09-06T02:17:26.810Z,29.15
2018-09-06T02:19:55.037Z,26.27
2018-09-06T02:22:23.207Z,27.23
2018-09-06T02:24:51.396Z,27.32
2018-09-06T02:27:19.576Z,23.93
2018-09-06T02:29:47.812Z,24.40
2018-09-06T02:32:16.329Z,24.12
2018-09-06T02:34:44.543Z,24.77
2018-09-06T02:37:12.930Z,21.80
2018-09-06T02:39:41.059Z,21.40
2018-09-06T02:42:09.272Z,23.50
2018-09-06T02:44:37.450Z,24.57
2018-09-06T02:47:05.776Z,21.50
2018-09-06T02:49:39.444Z,25.00
2018-09-06T02:52:07.665Z,26.37
2018-09-06T02:54:36.148Z,28.80
2018-09-06T02:57:04.528Z,28.65
2018-09-06T02:59:32.728Z,30.53
2018-09-06T03:02:01.380Z,27.13
2018-09-06T03:04:29.526Z,25.70
2018-09-06T03:06:57.739Z,25.60
2018-09-06T03:09:25.913Z,25.97
2018-09-06T03:11:57.395Z,28.25
2018-09-06T03:14:26.053Z,28.30
2018-09-06T03:16:54.232Z,28.20
2018-09-06T03:19:22.443Z,26.53
2018-09-06T03:21:54.155Z,24.80
2018-09-06T03:24:22.371Z,26.73
2018-09-06T03:26:51.507Z,24.60
2018-09-06T03:29:19.704Z,26.02
2018-09-06T03:31:47.900Z,23.73
2018-09-06T03:34:16.100Z,24.33
2018-09-06T03:36:44.304Z,22.93
2018-09-06T03:39:12.471Z,26.07
2018-09-06T03:41:41.032Z,24.90
2018-09-06T03:44:09.260Z,22.60
2018-09-06T03:46:37.424Z,22.55
2018-09-06T03:49:05.628Z,20.80
2018-09-06T03:51:33.832Z,21.37
2018-09-06T03:54:02.037Z,20.07
2018-09-06T03:56:30.385Z,22.98
2018-09-06T03:58:58.638Z,22.20
2018-09-06T04:01:26.809Z,24.53
2018-09-06T04:03:55.009Z,24.53
2018-09-06T04:06:23.228Z,25.82
2018-09-06T04:08:55.675Z,28.30
2018-09-06T04:11:23.862Z,27.30
2018-09-06T04:13:52.090Z,28.40
2018-09-06T04:16:20.309Z,29.70
2018-09-06T04:18:48.576Z,28.80
2018-09-06T04:21:16.759Z,31.40
2018-09-06T04:23:48.219Z,32.47
2018-09-06T04:26:16.695Z,31.03
2018-09-06T04:28:44.975Z,31.65
2018-09-06T04:31:13.144Z,25.80
2018-09-06T04:33:41.344Z,27.80
2018-09-06T04:36:09.902Z,29.15
2018-09-06T04:38:38.074Z,25.30
2018-09-06T04:41:09.126Z,29.87
2018-09-06T04:43:37.408Z,26.62
2018-09-06T04:46:05.620Z,30.10
2018-09-06T04:48:34.706Z,26.57
2018-09-06T04:51:02.885Z,26.40
2018-09-06T04:53:35.603Z,29.30
2018-09-06T04:56:03.812Z,25.27
2018-09-06T04:58:35.112Z,27.57
2018-09-06T05:01:03.709Z,25.55
2018-09-06T05:03:31.892Z,32.37
2018-09-06T05:06:00.781Z,27.02
2018-09-06T05:08:32.032Z,27.03
2018-09-06T05:11:01.149Z,27.27
2018-09-06T05:13:29.337Z,26.30
2018-09-06T05:15:57.524Z,24.77
2018-09-06T05:18:25.730Z,21.30
2018-09-06T05:20:53.909Z,21.48
2018-09-06T05:23:22.152Z,22.42
2018-09-06T05:25:50.326Z,22.30
2018-09-06T05:28:18.551Z,22.17
2018-09-06T05:30:46.776Z,18.10
2018-09-06T05:33:14.964Z,19.95
2018-09-06T05:35:43.178Z,19.75
2018-09-06T05:38:11.362Z,20.85
2018-09-06T05:40:47.609Z,23.70
2018-09-06T05:43:15.916Z,22.10
2018-09-06T05:45:44.116Z,22.70
2018-09-06T05:48:15.313Z,22.07
2018-09-06T05:50:43.507Z,22.97
2018-09-06T05:53:11.703Z,23.83
2018-09-06T05:55:39.912Z,26.17
2018-09-06T05:58:08.083Z,24.73
2018-09-06T06:00:41.635Z,26.00
2018-09-06T06:03:09.832Z,24.50
2018-09-06T06:05:38.058Z,26.40
2018-09-06T06:08:17.931Z,28.70
2018-09-06T06:10:49.752Z,26.30
2018-09-06T06:13:17.964Z,29.10
2018-09-06T06:15:46.180Z,26.77
2018-09-06T06:18:14.641Z,28.80
2018-09-06T06:20:43.400Z,26.62
2018-09-06T06:23:11.611Z,27.17
2018-09-06T06:25:39.785Z,30.08
2018-09-06T06:28:08.811Z,31.20
2018-09-06T06:30:37.012Z,31.10
2018-09-06T06:33:05.215Z,30.47
2018-09-06T06:35:33.371Z,31.47
2018-09-06T06:38:01.556Z,31.70
2018-09-06T06:40:32.865Z,31.27
2018-09-06T06:43:01.028Z,33.95
2018-09-06T06:45:29.264Z,31.73
2018-09-06T06:47:58.236Z,34.10
2018-09-06T06:50:26.506Z,32.55
2018-09-06T06:52:54.640Z,35.43
2018-09-06T06:55:26.010Z,33.95
2018-09-06T06:57:54.204Z,32.70
2018-09-06T07:00:23.196Z,33.08
2018-09-06T07:02:52.068Z,33.18
2018-09-06T07:05:20.296Z,34.73
2018-09-06T07:07:48.775Z,35.47
2018-09-06T07:10:17.900Z,31.97
2018-09-06T07:12:46.125Z,33.63
2018-09-06T07:15:14.528Z,33.13
2018-09-06T07:17:43.085Z,32.63
2018-09-06T07:20:11.284Z,32.17
2018-09-06T07:22:39.526Z,32.93
2018-09-06T07:25:07.711Z,31.87
2018-09-06T07:27:35.896Z,30.40
2018-09-06T07:30:04.339Z,29.60
2018-09-06T07:32:32.564Z,28.35
2018-09-06T07:35:00.768Z,30.93
2018-09-06T07:37:29.731Z,29.65
2018-09-06T07:39:58.056Z,27.65
2018-09-06T07:42:26.224Z,29.37
2018-09-06T07:44:54.911Z,28.77
2018-09-06T07:47:23.367Z,29.17
2018-09-06T07:49:51.989Z,27.87
2018-09-06T07:52:21.264Z,26.43
2018-09-06T07:54:49.377Z,28.50
2018-09-06T07:57:28.182Z,28.20
2018-09-06T07:59:56.336Z,28.10
2018-09-06T08:02:24.577Z,28.50
2018-09-06T08:04:53.430Z,26.60
2018-09-06T08:07:21.607Z,27.80
2018-09-06T08:09:49.792Z,28.13
2018-09-06T08:12:18.680Z,27.60
2018-09-06T08:14:47.058Z,25.27
2018-09-06T08:17:15.279Z,24.70
2018-09-06T08:19:43.451Z,29.00
2018-09-06T08:22:11.625Z,28.27
2018-09-06T08:24:39.821Z,27.05
2018-09-06T08:27:08.120Z,24.70
2018-09-06T08:29:40.068Z,26.02
2018-09-06T08:32:08.581Z,26.62
2018-09-06T08:34:36.799Z,28.47
2018-09-06T08:37:04.996Z,26.37
2018-09-06T08:39:33.173Z,25.23
2018-09-06T08:42:04.624Z,26.82
2018-09-06T08:44:33.459Z,24.30
2018-09-06T08:47:01.992Z,25.10
2018-09-06T08:49:30.224Z,26.00
2018-09-06T08:51:58.489Z,25.90
2018-09-06T08:54:26.698Z,23.55
2018-09-06T08:56:54.871Z,23.35
2018-09-06T08:59:23.068Z,23.30
2018-09-06T09:01:51.247Z,23.67
2018-09-06T09:04:19.477Z,23.30
2018-09-06T09:06:47.821Z,24.43
2018-09-06T09:09:16.413Z,23.40
2018-09-06T09:11:44.563Z,20.93
2018-09-06T09:14:12.810Z,20.43
2018-09-06T09:16:40.984Z,22.10
2018-09-06T09:19:09.408Z,20.53
2018-09-06T09:21:37.637Z,21.23
2018-09-06T09:24:06.569Z,20.30
2018-09-06T09:26:35.477Z,19.43
2018-09-06T09:29:03.669Z,19.77
2018-09-06T09:31:32.519Z,18.62
2018-09-06T09:34:00.726Z,20.73
2018-09-06T09:36:29.004Z,19.23
2018-09-06T09:38:57.185Z,17.47
2018-09-06T09:41:25.408Z,19.47
2018-09-06T09:43:53.672Z,17.37
2018-09-06T09:48:49.300Z,16.17
2018-09-06T09:51:17.513Z,17.12
2018-09-06T09:53:46.004Z,17.90
2018-09-06T09:56:14.216Z,17.50
2018-09-06T09:58:42.416Z,17.48
2018-09-06T10:01:10.856Z,14.87
2018-09-06T10:03:44.461Z,16.23
2018-09-06T10:06:21.697Z,14.73
2018-09-06T10:08:55.680Z,15.57
2018-09-06T10:11:23.872Z,17.40
2018-09-06T10:13:52.094Z,16.55
2018-09-06T10:16:20.302Z,17.53
2018-09-06T10:18:48.558Z,14.23
2018-09-06T10:21:16.772Z,16.77
2018-09-06T10:23:44.965Z,15.23
2018-09-06T10:26:13.147Z,13.25
2018-09-06T10:28:41.311Z,13.35
2018-09-06T10:31:09.474Z,12.70
2018-09-06T10:33:37.898Z,11.70
2018-09-06T10:36:06.063Z,12.13
2018-09-06T10:38:34.306Z,15.20
2018-09-06T10:41:02.481Z,13.00
2018-09-06T10:43:30.661Z,12.85
2018-09-06T10:46:03.120Z,12.70
2018-09-06T10:48:31.311Z,11.03
2018-09-06T10:50:59.552Z,11.07
2018-09-06T10:53:27.804Z,10.90
2018-09-06T10:55:56.309Z,12.63
2018-09-06T10:58:24.515Z,11.03
2018-09-06T11:01:00.455Z,12.20
2018-09-06T11:03:28.807Z,13.58
2018-09-06T11:05:57.088Z,10.60
2018-09-06T11:08:25.308Z,12.83
2018-09-06T11:10:53.467Z,11.17
2018-09-06T11:13:21.641Z,11.15
2018-09-06T11:16:01.075Z,12.03
2018-09-06T11:18:29.397Z,12.50
2018-09-06T11:20:57.895Z,11.90
2018-09-06T11:23:26.104Z,11.97
2018-09-06T11:25:54.639Z,10.80
2018-09-06T11:28:22.949Z,14.80
2018-09-06T11:30:51.145Z,11.40
2018-09-06T11:33:24.365Z,8.98
2018-09-06T11:35:52.516Z,11.80
2018-09-06T11:38:20.704Z,11.17
2018-09-06T11:40:49.892Z,9.25
2018-09-06T11:43:18.412Z,10.58
2018-09-06T11:45:46.760Z,9.73
2018-09-06T11:48:15.244Z,11.00
2018-09-06T11:50:43.476Z,10.10
2018-09-06T11:53:11.660Z,10.53
2018-09-06T11:55:39.936Z,9.50
2018-09-06T11:58:08.142Z,10.53
2018-09-06T12:00:41.412Z,9.43
2018-09-06T12:03:09.628Z,9.57
2018-09-06T12:05:37.911Z,9.70
2018-09-06T12:08:06.064Z,9.43
2018-09-06T12:10:35.074Z,9.93
2018-09-06T12:13:03.284Z,8.87
2018-09-06T12:15:35.887Z,8.43
2018-09-06T12:18:04.031Z,10.27
2018-09-06T12:20:32.211Z,10.50
2018-09-06T12:23:00.572Z,9.90
2018-09-06T12:25:28.787Z,8.90
2018-09-06T12:27:56.952Z,10.57
2018-09-06T12:30:25.180Z,9.27
2018-09-06T12:32:58.009Z,8.65
2018-09-06T12:35:26.181Z,10.40
2018-09-06T12:37:54.406Z,9.45
2018-09-06T12:40:22.609Z,10.47
2018-09-06T12:42:51.044Z,9.77
2018-09-06T12:45:19.305Z,9.37
2018-09-06T12:47:47.475Z,9.17
2018-09-06T12:50:15.638Z,10.00
2018-09-06T12:52:43.848Z,9.23
2018-09-06T12:55:12.018Z,9.37
2018-09-06T12:57:40.192Z,9.27
2018-09-06T13:00:08.394Z,9.75
2018-09-06T13:02:36.619Z,9.80
2018-09-06T13:05:04.956Z,9.45
2018-09-06T13:07:33.139Z,9.93
2018-09-06T13:10:02.295Z,9.67
2018-09-06T13:12:30.504Z,9.70
2018-09-06T13:14:59.124Z,9.43
2018-09-06T13:17:27.308Z,10.03
2018-09-06T13:19:55.488Z,9.93
2018-09-06T13:22:24.124Z,10.32
2018-09-06T13:24:52.299Z,8.33
2018-09-06T13:27:20.485Z,9.03
2018-09-06T13:29:48.660Z,9.23
2018-09-06T13:32:21.055Z,8.97
2018-09-06T13:34:49.191Z,9.28
2018-09-06T13:37:17.388Z,9.57
2018-09-06T13:39:45.564Z,9.25
2018-09-06T13:42:14.080Z,9.73
2018-09-06T13:44:42.220Z,9.83
2018-09-06T13:47:13.476Z,8.78
2018-09-06T13:49:41.636Z,9.30
2018-09-06T13:52:09.932Z,10.03
2018-09-06T13:54:39.185Z,9.30
2018-09-06T13:57:07.327Z,8.80
2018-09-06T13:59:35.552Z,10.65
2018-09-06T14:02:04.631Z,8.10
2018-09-06T14:04:35.800Z,8.10
2018-09-06T14:07:04.438Z,9.90
2018-09-06T14:09:32.617Z,8.93
2018-09-06T14:12:04.243Z,9.47
2018-09-06T14:14:32.414Z,10.10
2018-09-06T14:17:00.629Z,10.03
2018-09-06T14:19:29.484Z,9.58
2018-09-06T14:21:57.700Z,9.15
2018-09-06T14:24:25.896Z,9.58
2018-09-06T14:26:54.328Z,8.93
2018-09-06T14:29:22.551Z,10.50
2018-09-06T14:31:50.776Z,9.80
2018-09-06T14:34:22.703Z,9.37
2018-09-06T14:36:50.879Z,9.75
2018-09-06T14:39:19.240Z,10.25
2018-09-06T14:41:47.525Z,9.40
2018-09-06T14:44:15.712Z,9.08
2018-09-06T14:46:43.985Z,9.80
2018-09-06T14:49:16.861Z,10.00
2018-09-06T14:51:45.064Z,11.20
2018-09-06T14:54:13.277Z,11.20
2018-09-06T14:56:41.456Z,9.97
2018-09-06T14:59:09.644Z,11.50
2018-09-06T15:01:37.849Z,9.43
2018-09-06T15:04:09.407Z,10.40
2018-09-06T15:06:37.945Z,10.75
2018-09-06T15:09:07.275Z,9.17
2018-09-06T15:11:35.588Z,10.58
2018-09-06T15:14:04.401Z,8.45
2018-09-06T15:16:32.544Z,9.40
2018-09-06T15:19:04.702Z,9.13
2018-09-06T15:21:33.064Z,8.67
2018-09-06T15:24:01.256Z,9.50
2018-09-06T15:26:29.532Z,9.40
2018-09-06T15:28:57.833Z,8.40
2018-09-06T15:31:26.505Z,9.98
2018-09-06T15:33:59.061Z,9.63
2018-09-06T15:36:27.293Z,8.30
2018-09-06T15:38:55.558Z,8.40
2018-09-06T15:41:23.852Z,10.78
2018-09-06T15:43:52.128Z,9.35
2018-09-06T15:46:20.381Z,9.90
2018-09-06T15:48:48.642Z,10.38
2018-09-06T15:51:16.813Z,9.90
2018-09-06T15:53:45.604Z,9.93
2018-09-06T15:56:14.576Z,9.35
2018-09-06T15:58:42.816Z,10.27
2018-09-06T16:01:10.956Z,9.00
2018-09-06T16:03:39.243Z,9.18
2018-09-06T16:06:07.480Z,9.30
2018-09-06T16:08:35.696Z,10.25
2018-09-06T16:11:03.961Z,9.47
2018-09-06T16:13:32.176Z,9.20
2018-09-06T16:16:00.446Z,9.10
2018-09-06T16:18:28.708Z,9.33
2018-09-06T16:20:56.981Z,10.13
2018-09-06T16:23:25.226Z,10.10
2018-09-06T16:25:53.433Z,9.77
2018-09-06T16:28:21.751Z,9.53
2018-09-06T16:30:49.987Z,9.03
2018-09-06T16:33:18.353Z,9.43
2018-09-06T16:35:46.539Z,10.50
2018-09-06T16:38:14.806Z,10.23
2018-09-06T16:40:43.051Z,10.40
2018-09-06T16:43:11.306Z,9.60
2018-09-06T16:45:39.576Z,10.60
2018-09-06T16:48:08.572Z,10.37
2018-09-06T16:50:37.521Z,10.88
2018-09-06T16:53:06.006Z,9.33
2018-09-06T16:55:34.298Z,10.67
2018-09-06T16:58:02.569Z,10.80
2018-09-06T17:00:31.028Z,10.97
2018-09-06T17:02:59.210Z,9.23
2018-09-06T17:05:27.448Z,10.27
2018-09-06T17:07:55.675Z,9.97
2018-09-06T17:10:23.856Z,11.30
2018-09-06T17:12:52.114Z,12.00
2018-09-06T17:15:20.303Z,10.77
2018-09-06T17:17:48.505Z,9.85
2018-09-06T17:20:16.790Z,11.00
2018-09-06T17:22:45.005Z,11.15
2018-09-06T17:25:13.249Z,10.17
2018-09-06T17:27:41.664Z,11.00
2018-09-06T17:30:10.080Z,10.73
2018-09-06T17:32:38.310Z,10.53
2018-09-06T17:35:06.519Z,11.28
2018-09-06T17:37:34.708Z,10.43
2018-09-06T17:40:02.942Z,11.90
2018-09-06T17:42:32.082Z,11.48
2018-09-06T17:45:00.875Z,11.93
2018-09-06T17:47:29.130Z,11.50
2018-09-06T17:49:57.308Z,12.28
2018-09-06T17:52:25.712Z,10.85
2018-09-06T17:54:53.901Z,11.90
2018-09-06T17:57:22.132Z,11.40
2018-09-06T17:59:50.363Z,11.53
2018-09-06T18:02:18.559Z,11.85
2018-09-06T18:04:46.745Z,10.80
2018-09-06T18:07:15.336Z,10.78
2018-09-06T18:09:50.224Z,11.38
2018-09-06T18:12:18.437Z,11.25
2018-09-06T18:14:46.618Z,11.33
2018-09-06T18:17:14.840Z,11.70
2018-09-06T18:19:43.045Z,11.90
2018-09-06T18:22:11.165Z,11.83
2018-09-06T18:24:39.441Z,11.80
2018-09-06T18:27:07.195Z,11.97
2018-09-06T18:29:35.388Z,12.10
2018-09-06T18:32:03.564Z,10.90
2018-09-06T18:34:31.800Z,12.10
2018-09-06T18:37:00.003Z,11.17
2018-09-06T18:39:28.201Z,11.10
2018-09-06T18:41:56.432Z,10.70
2018-09-06T18:44:24.664Z,11.57
2018-09-06T18:46:52.850Z,11.10
2018-09-06T18:49:21.077Z,12.80
2018-09-06T18:51:49.246Z,13.17
2018-09-06T18:54:17.444Z,11.87
2018-09-06T18:56:45.675Z,12.18
2018-09-06T18:59:14.181Z,12.43
2018-09-06T19:01:42.456Z,11.00
2018-09-06T19:04:10.635Z,12.07
2018-09-06T19:06:38.882Z,11.77
2018-09-06T19:09:09.011Z,11.85
2018-09-06T19:11:37.206Z,12.80
2018-09-06T19:14:05.421Z,11.25
2018-09-06T19:16:33.657Z,12.63
2018-09-06T19:19:02.207Z,11.38
2018-09-06T19:21:30.404Z,13.00
2018-09-06T19:24:09.236Z,11.43
2018-09-06T19:26:37.480Z,12.95
2018-09-06T19:29:05.660Z,12.50
2018-09-06T19:31:33.947Z,12.53
2018-09-06T19:34:02.093Z,12.55
2018-09-06T19:36:30.299Z,12.97
2018-09-06T19:38:58.539Z,11.07
2018-09-06T19:41:26.762Z,10.50
2018-09-06T19:43:54.988Z,11.80
2018-09-06T19:46:23.122Z,12.70
2018-09-06T19:48:51.397Z,12.63
2018-09-06T19:51:19.566Z,12.07
2018-09-06T19:56:22.316Z,11.97
2018-09-06T19:58:50.488Z,12.70
2018-09-06T20:01:18.979Z,13.55
2018-09-06T20:03:48.159Z,13.88
2018-09-06T20:06:16.360Z,13.33
2018-09-06T20:08:48.678Z,14.27
2018-09-06T20:11:16.910Z,12.73
2018-09-06T20:13:45.236Z,14.53
2018-09-06T20:16:13.444Z,11.50
2018-09-06T20:18:41.660Z,13.30
2018-09-06T20:21:09.884Z,12.53
2018-09-06T20:23:38.024Z,11.70
2018-09-06T20:26:06.428Z,12.70
2018-09-06T20:28:34.673Z,11.30
2018-09-06T20:31:03.008Z,11.57
2018-09-06T20:33:31.254Z,11.20
2018-09-06T20:35:59.420Z,9.67
2018-09-06T20:38:27.600Z,11.87
2018-09-06T20:40:55.812Z,11.93
2018-09-06T20:43:23.991Z,11.90
2018-09-06T20:45:52.208Z,10.32
2018-09-06T20:48:20.406Z,9.93
2018-09-06T20:50:48.604Z,11.20
2018-09-06T20:53:16.831Z,13.17
2018-09-06T20:55:45.133Z,11.20
2018-09-06T20:58:13.322Z,11.40
2018-09-06T21:00:41.509Z,12.13
2018-09-06T21:03:09.749Z,11.30
2018-09-06T21:05:37.996Z,12.30
2018-09-06T21:08:06.178Z,10.60
2018-09-06T21:10:38.657Z,11.90
2018-09-06T21:13:06.796Z,12.23
2018-09-06T21:15:35.008Z,11.33
2018-09-06T21:18:03.203Z,11.13
2018-09-06T21:20:31.379Z,12.30
2018-09-06T21:22:59.752Z,12.40
2018-09-06T21:25:30.936Z,12.67
2018-09-06T21:27:59.121Z,13.60
2018-09-06T21:30:28.012Z,12.55
2018-09-06T21:32:56.206Z,10.80
2018-09-06T21:35:24.398Z,12.30
2018-09-06T21:37:52.800Z,13.90
2018-09-06T21:40:24.305Z,11.63
2018-09-06T21:42:53.383Z,12.90
2018-09-06T21:45:21.596Z,13.93
2018-09-06T21:47:49.797Z,12.58
2018-09-06T21:50:18.149Z,15.70
2018-09-06T21:52:46.323Z,13.90
2018-09-06T21:55:18.015Z,15.03
2018-09-06T21:57:46.233Z,16.13
2018-09-06T22:00:14.387Z,15.40
2018-09-06T22:02:48.402Z,15.75
2018-09-06T22:05:16.584Z,17.57
2018-09-06T22:07:44.977Z,14.80
2018-09-06T22:10:16.918Z,15.47
2018-09-06T22:12:45.069Z,15.60
2018-09-06T22:15:14.172Z,16.35
2018-09-06T22:17:42.344Z,15.40
2018-09-06T22:20:10.543Z,16.90
2018-09-06T22:22:39.074Z,14.45
2018-09-06T22:25:07.252Z,14.10
2018-09-06T22:27:35.457Z,16.75
2018-09-06T22:30:04.071Z,14.95
2018-09-06T22:32:32.269Z,17.63
2018-09-06T22:35:00.484Z,18.20
2018-09-06T22:37:28.715Z,16.10
2018-09-06T22:39:56.932Z,16.30
2018-09-06T22:42:25.282Z,16.03
2018-09-06T22:44:53.492Z,16.50
2018-09-06T22:47:21.915Z,16.93
2018-09-06T22:49:50.123Z,16.50
2018-09-06T22:52:18.347Z,14.73
2018-09-06T22:54:46.510Z,18.07
2018-09-06T22:57:14.708Z,18.67
2018-09-06T22:59:42.875Z,16.97
2018-09-06T23:02:11.059Z,17.83
2018-09-06T23:04:39.264Z,19.00
2018-09-06T23:07:07.494Z,17.70
2018-09-06T23:09:35.724Z,17.53
2018-09-06T23:12:03.908Z,18.27
2018-09-06T23:14:32.144Z,18.07
2018-09-06T23:17:00.388Z,19.90
2018-09-06T23:19:28.572Z,19.03
2018-09-06T23:21:56.803Z,21.15
2018-09-06T23:24:24.996Z,19.27
2018-09-06T23:26:56.532Z,19.00
2018-09-06T23:29:25.148Z,19.00
2018-09-06T23:31:53.344Z,19.73
2018-09-06T23:34:21.549Z,19.43
2018-09-06T23:36:49.722Z,18.50
2018-09-06T23:39:17.942Z,19.90
2018-09-06T23:41:50.413Z,19.00
2018-09-06T23:44:18.588Z,18.37
2018-09-06T23:46:46.784Z,17.00
2018-09-06T23:49:14.967Z,16.75
2018-09-06T23:51:43.172Z,16.33
2018-09-06T23:54:11.367Z,16.30
2018-09-06T23:56:39.564Z,18.07
2018-09-06T23:59:07.794Z,16.82
